sensor_id;sensor_type;location;lat;lon;timestamp;temperature;humidity
22813;DHT22;11573;51.334;3.244;2022-07-17T00:00:28;14.40;99.90
22813;DHT22;11573;51.334;3.244;2022-07-17T00:02:55;14.40;99.90
22813;DHT22;11573;51.334;3.244;2022-07-17T00:05:22;14.20;99.90
22813;DHT22;11573;51.334;3.244;2022-07-17T00:07:49;14.20;99.90
22813;DHT22;11573;51.334;3.244;2022-07-17T00:10:16;14.20;99.90
22813;DHT22;11573;51.334;3.244;2022-07-17T00:12:44;14.10;99.90
22813;DHT22;11573;51.334;3.244;2022-07-17T00:15:11;14.10;99.90
22813;DHT22;11573;51.334;3.244;2022-07-17T00:17:39;14.10;99.90
22813;DHT22;11573;51.334;3.244;2022-07-17T00:20:07;14.00;99.90
22813;DHT22;11573;51.334;3.244;2022-07-17T00:22:35;14.00;99.90
22813;DHT22;11573;51.334;3.244;2022-07-17T00:25:03;13.90;99.90
22813;DHT22;11573;51.334;3.244;2022-07-17T00:27:31;13.90;99.90
22813;DHT22;11573;51.334;3.244;2022-07-17T00:29:58;13.90;99.90
22813;DHT22;11573;51.334;3.244;2022-07-17T00:32:25;13.80;99.90
22813;DHT22;11573;51.334;3.244;2022-07-17T00:34:52;13.80;99.90
22813;DHT22;11573;51.334;3.244;2022-07-17T00:37:19;13.80;99.90
22813;DHT22;11573;51.334;3.244;2022-07-17T00:39:46;13.80;99.90
22813;DHT22;11573;51.334;3.244;2022-07-17T00:42:14;13.80;99.90
22813;DHT22;11573;51.334;3.244;2022-07-17T00:44:43;13.80;99.90
22813;DHT22;11573;51.334;3.244;2022-07-17T00:47:16;13.70;99.90
22813;DHT22;11573;51.334;3.244;2022-07-17T00:49:43;13.70;99.90
22813;DHT22;11573;51.334;3.244;2022-07-17T00:52:12;13.60;99.90
22813;DHT22;11573;51.334;3.244;2022-07-17T00:54:41;13.60;99.90
22813;DHT22;11573;51.334;3.244;2022-07-17T00:57:11;13.60;99.90
22813;DHT22;11573;51.334;3.244;2022-07-17T00:59:39;13.50;99.90
22813;DHT22;11573;51.334;3.244;2022-07-17T01:02:08;13.60;99.90
22813;DHT22;11573;51.334;3.244;2022-07-17T01:04:37;13.60;99.90
22813;DHT22;11573;51.334;3.244;2022-07-17T01:07:05;13.50;99.90
22813;DHT22;11573;51.334;3.244;2022-07-17T01:09:33;13.60;99.90
22813;DHT22;11573;51.334;3.244;2022-07-17T01:12:00;13.60;99.90
22813;DHT22;11573;51.334;3.244;2022-07-17T01:14:28;13.60;99.90
22813;DHT22;11573;51.334;3.244;2022-07-17T01:16:55;13.60;99.90
22813;DHT22;11573;51.334;3.244;2022-07-17T01:19:23;13.60;99.90
22813;DHT22;11573;51.334;3.244;2022-07-17T01:21:50;13.60;99.90
22813;DHT22;11573;51.334;3.244;2022-07-17T01:24:17;13.60;99.90
22813;DHT22;11573;51.334;3.244;2022-07-17T01:26:48;13.60;99.90
22813;DHT22;11573;51.334;3.244;2022-07-17T01:29:16;13.60;99.90
22813;DHT22;11573;51.334;3.244;2022-07-17T01:31:43;13.50;99.90
22813;DHT22;11573;51.334;3.244;2022-07-17T01:34:11;13.50;99.90
22813;DHT22;11573;51.334;3.244;2022-07-17T01:36:41;13.50;99.90
22813;DHT22;11573;51.334;3.244;2022-07-17T01:39:08;13.30;99.90
22813;DHT22;11573;51.334;3.244;2022-07-17T01:41:35;13.30;99.90
22813;DHT22;11573;51.334;3.244;2022-07-17T01:44:03;13.20;99.90
22813;DHT22;11573;51.334;3.244;2022-07-17T01:46:30;13.20;99.90
22813;DHT22;11573;51.334;3.244;2022-07-17T01:48:59;13.10;99.90
22813;DHT22;11573;51.334;3.244;2022-07-17T01:51:28;13.10;99.90
22813;DHT22;11573;51.334;3.244;2022-07-17T01:53:57;13.10;99.90
22813;DHT22;11573;51.334;3.244;2022-07-17T01:56:25;13.10;99.90
22813;DHT22;11573;51.334;3.244;2022-07-17T01:58:52;13.00;99.90
22813;DHT22;11573;51.334;3.244;2022-07-17T02:01:19;13.00;99.90
22813;DHT22;11573;51.334;3.244;2022-07-17T02:03:46;13.00;99.90
22813;DHT22;11573;51.334;3.244;2022-07-17T02:06:13;12.90;99.90
22813;DHT22;11573;51.334;3.244;2022-07-17T02:08:40;12.80;99.90
22813;DHT22;11573;51.334;3.244;2022-07-17T02:11:08;12.80;99.90
22813;DHT22;11573;51.334;3.244;2022-07-17T02:13:35;12.80;99.90
22813;DHT22;11573;51.334;3.244;2022-07-17T02:16:02;12.70;99.90
22813;DHT22;11573;51.334;3.244;2022-07-17T02:18:29;12.70;99.90
22813;DHT22;11573;51.334;3.244;2022-07-17T02:20:56;12.70;99.90
22813;DHT22;11573;51.334;3.244;2022-07-17T02:23:23;12.70;99.90
22813;DHT22;11573;51.334;3.244;2022-07-17T02:25:50;12.60;99.90
22813;DHT22;11573;51.334;3.244;2022-07-17T02:28:17;12.60;99.90
22813;DHT22;11573;51.334;3.244;2022-07-17T02:30:44;12.60;99.90
22813;DHT22;11573;51.334;3.244;2022-07-17T02:33:11;12.60;99.90
22813;DHT22;11573;51.334;3.244;2022-07-17T02:35:38;12.60;99.90
22813;DHT22;11573;51.334;3.244;2022-07-17T02:38:05;12.50;99.90
22813;DHT22;11573;51.334;3.244;2022-07-17T02:40:33;12.50;99.90
22813;DHT22;11573;51.334;3.244;2022-07-17T02:42:59;12.50;99.90
22813;DHT22;11573;51.334;3.244;2022-07-17T02:45:27;12.50;99.90
22813;DHT22;11573;51.334;3.244;2022-07-17T02:47:54;12.50;99.90
22813;DHT22;11573;51.334;3.244;2022-07-17T02:50:22;12.50;99.90
22813;DHT22;11573;51.334;3.244;2022-07-17T02:52:49;12.50;99.90
22813;DHT22;11573;51.334;3.244;2022-07-17T02:55:18;12.50;99.90
22813;DHT22;11573;51.334;3.244;2022-07-17T02:57:45;12.50;99.90
22813;DHT22;11573;51.334;3.244;2022-07-17T03:00:17;12.50;99.90
22813;DHT22;11573;51.334;3.244;2022-07-17T03:02:45;12.50;99.90
22813;DHT22;11573;51.334;3.244;2022-07-17T03:05:13;12.50;99.90
22813;DHT22;11573;51.334;3.244;2022-07-17T03:07:40;12.50;99.90
22813;DHT22;11573;51.334;3.244;2022-07-17T03:10:07;12.50;99.90
22813;DHT22;11573;51.334;3.244;2022-07-17T03:12:35;12.50;99.90
22813;DHT22;11573;51.334;3.244;2022-07-17T03:15:03;12.50;99.90
22813;DHT22;11573;51.334;3.244;2022-07-17T03:17:30;12.40;99.90
22813;DHT22;11573;51.334;3.244;2022-07-17T03:19:57;12.40;99.90
22813;DHT22;11573;51.334;3.244;2022-07-17T03:22:24;12.40;99.90
22813;DHT22;11573;51.334;3.244;2022-07-17T03:24:51;12.30;99.90
22813;DHT22;11573;51.334;3.244;2022-07-17T03:27:18;12.30;99.90
22813;DHT22;11573;51.334;3.244;2022-07-17T03:29:45;12.20;99.90
22813;DHT22;11573;51.334;3.244;2022-07-17T03:32:12;12.20;99.90
22813;DHT22;11573;51.334;3.244;2022-07-17T03:34:40;12.20;99.90
22813;DHT22;11573;51.334;3.244;2022-07-17T03:37:07;12.20;99.90
22813;DHT22;11573;51.334;3.244;2022-07-17T03:39:34;12.20;99.90
22813;DHT22;11573;51.334;3.244;2022-07-17T03:42:01;12.20;99.90
22813;DHT22;11573;51.334;3.244;2022-07-17T03:44:27;12.20;99.90
22813;DHT22;11573;51.334;3.244;2022-07-17T03:46:54;12.30;99.90
22813;DHT22;11573;51.334;3.244;2022-07-17T03:49:22;12.20;99.90
22813;DHT22;11573;51.334;3.244;2022-07-17T03:51:49;12.20;99.90
22813;DHT22;11573;51.334;3.244;2022-07-17T03:54:16;12.20;99.90
22813;DHT22;11573;51.334;3.244;2022-07-17T03:56:43;12.20;99.90
22813;DHT22;11573;51.334;3.244;2022-07-17T03:59:10;12.20;99.90
22813;DHT22;11573;51.334;3.244;2022-07-17T04:01:37;12.30;99.90
22813;DHT22;11573;51.334;3.244;2022-07-17T04:04:04;12.30;99.90
22813;DHT22;11573;51.334;3.244;2022-07-17T04:06:31;12.30;99.90
22813;DHT22;11573;51.334;3.244;2022-07-17T04:08:58;12.40;99.90
22813;DHT22;11573;51.334;3.244;2022-07-17T04:11:25;12.40;99.90
22813;DHT22;11573;51.334;3.244;2022-07-17T04:13:52;12.50;99.90
22813;DHT22;11573;51.334;3.244;2022-07-17T04:16:20;12.50;99.90
22813;DHT22;11573;51.334;3.244;2022-07-17T04:18:46;12.50;99.90
22813;DHT22;11573;51.334;3.244;2022-07-17T04:21:13;12.60;99.90
22813;DHT22;11573;51.334;3.244;2022-07-17T04:23:40;12.70;99.90
22813;DHT22;11573;51.334;3.244;2022-07-17T04:26:08;12.80;99.90
22813;DHT22;11573;51.334;3.244;2022-07-17T04:28:40;13.00;99.90
22813;DHT22;11573;51.334;3.244;2022-07-17T04:31:07;13.30;99.90
22813;DHT22;11573;51.334;3.244;2022-07-17T04:33:34;13.80;99.90
22813;DHT22;11573;51.334;3.244;2022-07-17T04:36:01;14.20;99.90
22813;DHT22;11573;51.334;3.244;2022-07-17T04:38:28;14.50;99.90
22813;DHT22;11573;51.334;3.244;2022-07-17T04:40:55;14.90;99.90
22813;DHT22;11573;51.334;3.244;2022-07-17T04:43:23;15.30;99.90
22813;DHT22;11573;51.334;3.244;2022-07-17T04:45:50;15.80;99.90
22813;DHT22;11573;51.334;3.244;2022-07-17T04:48:17;16.40;99.90
22813;DHT22;11573;51.334;3.244;2022-07-17T04:50:44;17.30;99.90
22813;DHT22;11573;51.334;3.244;2022-07-17T04:53:11;18.00;99.90
22813;DHT22;11573;51.334;3.244;2022-07-17T04:55:38;18.70;99.90
22813;DHT22;11573;51.334;3.244;2022-07-17T04:58:05;19.20;99.90
22813;DHT22;11573;51.334;3.244;2022-07-17T05:00:33;19.50;99.90
22813;DHT22;11573;51.334;3.244;2022-07-17T05:03:00;19.60;99.90
22813;DHT22;11573;51.334;3.244;2022-07-17T05:05:27;19.70;99.90
22813;DHT22;11573;51.334;3.244;2022-07-17T05:07:53;19.60;99.90
22813;DHT22;11573;51.334;3.244;2022-07-17T05:10:20;19.20;99.90
22813;DHT22;11573;51.334;3.244;2022-07-17T05:12:53;18.80;99.90
22813;DHT22;11573;51.334;3.244;2022-07-17T05:15:20;18.30;99.90
22813;DHT22;11573;51.334;3.244;2022-07-17T05:17:47;18.10;99.90
22813;DHT22;11573;51.334;3.244;2022-07-17T05:20:14;18.10;99.90
22813;DHT22;11573;51.334;3.244;2022-07-17T05:22:41;18.30;99.90
22813;DHT22;11573;51.334;3.244;2022-07-17T05:25:08;18.70;99.90
22813;DHT22;11573;51.334;3.244;2022-07-17T05:27:35;19.30;99.90
22813;DHT22;11573;51.334;3.244;2022-07-17T05:30:03;20.00;99.90
22813;DHT22;11573;51.334;3.244;2022-07-17T05:32:30;20.70;99.90
22813;DHT22;11573;51.334;3.244;2022-07-17T05:34:56;21.30;99.90
22813;DHT22;11573;51.334;3.244;2022-07-17T05:37:23;21.70;99.90
22813;DHT22;11573;51.334;3.244;2022-07-17T05:39:50;22.00;99.90
22813;DHT22;11573;51.334;3.244;2022-07-17T05:42:17;22.30;99.90
22813;DHT22;11573;51.334;3.244;2022-07-17T05:44:44;22.30;99.90
22813;DHT22;11573;51.334;3.244;2022-07-17T05:47:11;22.40;99.90
22813;DHT22;11573;51.334;3.244;2022-07-17T05:49:39;22.70;99.90
22813;DHT22;11573;51.334;3.244;2022-07-17T05:52:06;22.90;99.90
22813;DHT22;11573;51.334;3.244;2022-07-17T05:54:33;23.20;99.90
22813;DHT22;11573;51.334;3.244;2022-07-17T05:57:01;23.30;99.90
22813;DHT22;11573;51.334;3.244;2022-07-17T05:59:35;23.30;99.90
22813;DHT22;11573;51.334;3.244;2022-07-17T06:02:03;23.10;99.90
22813;DHT22;11573;51.334;3.244;2022-07-17T06:04:30;22.60;99.90
22813;DHT22;11573;51.334;3.244;2022-07-17T06:06:57;22.00;99.90
22813;DHT22;11573;51.334;3.244;2022-07-17T06:09:24;21.60;99.90
22813;DHT22;11573;51.334;3.244;2022-07-17T06:11:51;21.10;99.90
22813;DHT22;11573;51.334;3.244;2022-07-17T06:14:18;20.80;99.90
22813;DHT22;11573;51.334;3.244;2022-07-17T06:16:45;20.40;99.90
22813;DHT22;11573;51.334;3.244;2022-07-17T06:19:12;20.00;99.90
22813;DHT22;11573;51.334;3.244;2022-07-17T06:21:39;19.70;99.90
22813;DHT22;11573;51.334;3.244;2022-07-17T06:24:06;19.30;99.90
22813;DHT22;11573;51.334;3.244;2022-07-17T06:26:33;19.20;99.90
22813;DHT22;11573;51.334;3.244;2022-07-17T06:29:00;19.40;99.90
22813;DHT22;11573;51.334;3.244;2022-07-17T06:31:27;19.60;99.90
22813;DHT22;11573;51.334;3.244;2022-07-17T06:33:54;19.70;99.90
22813;DHT22;11573;51.334;3.244;2022-07-17T06:36:21;19.80;99.90
22813;DHT22;11573;51.334;3.244;2022-07-17T06:38:48;20.00;99.90
22813;DHT22;11573;51.334;3.244;2022-07-17T06:41:15;20.10;99.90
22813;DHT22;11573;51.334;3.244;2022-07-17T06:43:42;20.20;99.90
22813;DHT22;11573;51.334;3.244;2022-07-17T06:46:09;20.10;99.90
22813;DHT22;11573;51.334;3.244;2022-07-17T06:48:36;20.10;99.90
22813;DHT22;11573;51.334;3.244;2022-07-17T06:51:03;20.20;99.90
22813;DHT22;11573;51.334;3.244;2022-07-17T06:53:30;20.10;99.90
22813;DHT22;11573;51.334;3.244;2022-07-17T06:55:57;20.30;99.90
22813;DHT22;11573;51.334;3.244;2022-07-17T06:58:23;20.30;99.90
22813;DHT22;11573;51.334;3.244;2022-07-17T07:00:50;20.30;99.90
22813;DHT22;11573;51.334;3.244;2022-07-17T07:03:17;20.30;99.90
22813;DHT22;11573;51.334;3.244;2022-07-17T07:05:44;20.30;99.90
22813;DHT22;11573;51.334;3.244;2022-07-17T07:08:11;20.40;99.90
22813;DHT22;11573;51.334;3.244;2022-07-17T07:10:38;20.30;99.90
22813;DHT22;11573;51.334;3.244;2022-07-17T07:13:05;20.40;99.90
22813;DHT22;11573;51.334;3.244;2022-07-17T07:15:32;20.70;99.90
22813;DHT22;11573;51.334;3.244;2022-07-17T07:17:59;20.90;99.90
22813;DHT22;11573;51.334;3.244;2022-07-17T07:20:26;21.10;99.90
22813;DHT22;11573;51.334;3.244;2022-07-17T07:22:53;21.10;99.90
22813;DHT22;11573;51.334;3.244;2022-07-17T07:25:23;21.20;99.90
22813;DHT22;11573;51.334;3.244;2022-07-17T07:27:50;21.30;99.90
22813;DHT22;11573;51.334;3.244;2022-07-17T07:30:17;21.50;99.90
22813;DHT22;11573;51.334;3.244;2022-07-17T07:32:44;21.60;99.90
22813;DHT22;11573;51.334;3.244;2022-07-17T07:35:11;21.70;99.90
22813;DHT22;11573;51.334;3.244;2022-07-17T07:37:38;21.80;99.90
22813;DHT22;11573;51.334;3.244;2022-07-17T07:40:07;21.90;99.90
22813;DHT22;11573;51.334;3.244;2022-07-17T07:42:35;21.70;99.90
22813;DHT22;11573;51.334;3.244;2022-07-17T07:45:03;21.80;99.90
22813;DHT22;11573;51.334;3.244;2022-07-17T07:47:30;21.90;99.90
22813;DHT22;11573;51.334;3.244;2022-07-17T07:49:57;22.10;99.90
22813;DHT22;11573;51.334;3.244;2022-07-17T07:52:24;22.30;99.90
22813;DHT22;11573;51.334;3.244;2022-07-17T07:54:50;22.70;99.90
22813;DHT22;11573;51.334;3.244;2022-07-17T07:57:17;23.10;99.90
22813;DHT22;11573;51.334;3.244;2022-07-17T07:59:44;23.50;99.90
22813;DHT22;11573;51.334;3.244;2022-07-17T08:02:11;23.40;99.90
22813;DHT22;11573;51.334;3.244;2022-07-17T08:04:38;23.30;99.90
22813;DHT22;11573;51.334;3.244;2022-07-17T08:07:05;23.20;99.90
22813;DHT22;11573;51.334;3.244;2022-07-17T08:09:32;22.90;99.90
22813;DHT22;11573;51.334;3.244;2022-07-17T08:11:59;22.90;99.90
22813;DHT22;11573;51.334;3.244;2022-07-17T08:14:35;22.90;99.90
22813;DHT22;11573;51.334;3.244;2022-07-17T08:17:03;22.40;99.90
22813;DHT22;11573;51.334;3.244;2022-07-17T08:19:30;22.30;99.90
22813;DHT22;11573;51.334;3.244;2022-07-17T08:21:57;22.20;99.90
22813;DHT22;11573;51.334;3.244;2022-07-17T08:24:24;22.40;99.90
22813;DHT22;11573;51.334;3.244;2022-07-17T08:26:50;22.50;99.90
22813;DHT22;11573;51.334;3.244;2022-07-17T08:29:18;22.90;99.90
22813;DHT22;11573;51.334;3.244;2022-07-17T08:32:05;22.90;99.90
22813;DHT22;11573;51.334;3.244;2022-07-17T08:34:32;23.00;99.90
22813;DHT22;11573;51.334;3.244;2022-07-17T08:36:59;23.20;99.90
22813;DHT22;11573;51.334;3.244;2022-07-17T08:39:26;23.40;99.90
22813;DHT22;11573;51.334;3.244;2022-07-17T08:41:53;23.40;99.90
22813;DHT22;11573;51.334;3.244;2022-07-17T08:44:20;23.40;99.90
22813;DHT22;11573;51.334;3.244;2022-07-17T08:46:48;23.50;99.90
22813;DHT22;11573;51.334;3.244;2022-07-17T08:49:20;23.50;99.90
22813;DHT22;11573;51.334;3.244;2022-07-17T08:51:48;23.50;99.90
22813;DHT22;11573;51.334;3.244;2022-07-17T08:54:15;23.60;99.90
22813;DHT22;11573;51.334;3.244;2022-07-17T08:56:43;23.60;99.90
22813;DHT22;11573;51.334;3.244;2022-07-17T08:59:10;23.80;99.90
22813;DHT22;11573;51.334;3.244;2022-07-17T09:01:37;23.60;99.90
22813;DHT22;11573;51.334;3.244;2022-07-17T09:04:05;23.70;99.90
22813;DHT22;11573;51.334;3.244;2022-07-17T09:06:36;23.90;99.90
22813;DHT22;11573;51.334;3.244;2022-07-17T09:09:09;24.00;99.90
22813;DHT22;11573;51.334;3.244;2022-07-17T09:11:51;24.10;99.90
22813;DHT22;11573;51.334;3.244;2022-07-17T09:14:19;24.20;99.90
22813;DHT22;11573;51.334;3.244;2022-07-17T09:16:57;24.40;99.90
22813;DHT22;11573;51.334;3.244;2022-07-17T09:19:32;24.50;99.90
22813;DHT22;11573;51.334;3.244;2022-07-17T09:22:23;24.60;99.90
22813;DHT22;11573;51.334;3.244;2022-07-17T09:24:55;24.60;99.90
22813;DHT22;11573;51.334;3.244;2022-07-17T09:32:32;24.50;99.90
22813;DHT22;11573;51.334;3.244;2022-07-17T09:35:02;24.50;99.90
22813;DHT22;11573;51.334;3.244;2022-07-17T09:37:30;24.50;99.90
22813;DHT22;11573;51.334;3.244;2022-07-17T09:39:58;24.60;99.90
22813;DHT22;11573;51.334;3.244;2022-07-17T09:42:27;24.70;99.90
22813;DHT22;11573;51.334;3.244;2022-07-17T09:44:59;24.80;99.90
22813;DHT22;11573;51.334;3.244;2022-07-17T09:47:27;25.10;99.90
22813;DHT22;11573;51.334;3.244;2022-07-17T09:49:56;25.10;99.90
22813;DHT22;11573;51.334;3.244;2022-07-17T09:52:25;24.90;99.90
22813;DHT22;11573;51.334;3.244;2022-07-17T09:54:54;24.90;99.90
22813;DHT22;11573;51.334;3.244;2022-07-17T09:57:42;24.80;99.90
22813;DHT22;11573;51.334;3.244;2022-07-17T10:00:10;25.00;99.90
22813;DHT22;11573;51.334;3.244;2022-07-17T10:02:43;25.50;99.90
22813;DHT22;11573;51.334;3.244;2022-07-17T10:05:12;25.50;99.90
22813;DHT22;11573;51.334;3.244;2022-07-17T10:07:47;25.50;99.90
22813;DHT22;11573;51.334;3.244;2022-07-17T10:10:16;25.70;99.90
22813;DHT22;11573;51.334;3.244;2022-07-17T10:12:48;25.70;99.90
22813;DHT22;11573;51.334;3.244;2022-07-17T10:15:16;25.50;99.90
22813;DHT22;11573;51.334;3.244;2022-07-17T10:17:43;25.50;99.90
22813;DHT22;11573;51.334;3.244;2022-07-17T10:20:12;25.40;99.90
22813;DHT22;11573;51.334;3.244;2022-07-17T10:22:49;25.20;99.90
22813;DHT22;11573;51.334;3.244;2022-07-17T10:25:18;25.40;99.90
22813;DHT22;11573;51.334;3.244;2022-07-17T10:27:53;25.40;99.90
22813;DHT22;11573;51.334;3.244;2022-07-17T10:30:24;25.60;99.90
22813;DHT22;11573;51.334;3.244;2022-07-17T10:32:58;25.10;99.90
22813;DHT22;11573;51.334;3.244;2022-07-17T10:35:27;24.70;99.90
22813;DHT22;11573;51.334;3.244;2022-07-17T10:38:08;24.60;99.90
22813;DHT22;11573;51.334;3.244;2022-07-17T10:40:36;24.50;99.90
22813;DHT22;11573;51.334;3.244;2022-07-17T10:43:08;24.90;99.90
22813;DHT22;11573;51.334;3.244;2022-07-17T10:45:41;25.00;99.90
22813;DHT22;11573;51.334;3.244;2022-07-17T10:50:49;24.80;99.90
22813;DHT22;11573;51.334;3.244;2022-07-17T10:53:21;24.60;99.90
22813;DHT22;11573;51.334;3.244;2022-07-17T10:55:59;24.40;99.90
22813;DHT22;11573;51.334;3.244;2022-07-17T10:58:30;24.10;99.90
22813;DHT22;11573;51.334;3.244;2022-07-17T11:01:07;24.00;99.90
22813;DHT22;11573;51.334;3.244;2022-07-17T11:08:50;24.30;99.90
22813;DHT22;11573;51.334;3.244;2022-07-17T11:11:20;24.20;99.90
22813;DHT22;11573;51.334;3.244;2022-07-17T11:16:36;24.20;99.90
22813;DHT22;11573;51.334;3.244;2022-07-17T11:19:04;24.00;99.90
22813;DHT22;11573;51.334;3.244;2022-07-17T11:21:31;24.30;99.90
22813;DHT22;11573;51.334;3.244;2022-07-17T11:24:02;24.10;99.90
22813;DHT22;11573;51.334;3.244;2022-07-17T11:26:29;24.30;99.90
22813;DHT22;11573;51.334;3.244;2022-07-17T11:28:57;24.50;99.90
22813;DHT22;11573;51.334;3.244;2022-07-17T11:31:28;24.40;99.90
22813;DHT22;11573;51.334;3.244;2022-07-17T11:34:07;24.40;99.90
22813;DHT22;11573;51.334;3.244;2022-07-17T11:36:43;24.40;99.90
22813;DHT22;11573;51.334;3.244;2022-07-17T11:39:13;24.40;99.90
22813;DHT22;11573;51.334;3.244;2022-07-17T11:41:48;24.50;99.90
22813;DHT22;11573;51.334;3.244;2022-07-17T11:44:19;24.50;99.90
22813;DHT22;11573;51.334;3.244;2022-07-17T11:46:49;24.40;99.90
22813;DHT22;11573;51.334;3.244;2022-07-17T11:49:28;24.10;99.90
22813;DHT22;11573;51.334;3.244;2022-07-17T11:52:07;24.00;99.90
22813;DHT22;11573;51.334;3.244;2022-07-17T11:57:15;24.20;99.90
22813;DHT22;11573;51.334;3.244;2022-07-17T11:59:43;24.30;99.90
22813;DHT22;11573;51.334;3.244;2022-07-17T12:02:15;24.60;99.90
22813;DHT22;11573;51.334;3.244;2022-07-17T12:04:53;24.80;99.90
22813;DHT22;11573;51.334;3.244;2022-07-17T12:07:22;24.90;99.90
22813;DHT22;11573;51.334;3.244;2022-07-17T12:09:50;24.90;99.90
22813;DHT22;11573;51.334;3.244;2022-07-17T12:12:22;24.90;99.90
22813;DHT22;11573;51.334;3.244;2022-07-17T12:14:57;24.90;99.90
22813;DHT22;11573;51.334;3.244;2022-07-17T12:17:39;24.90;99.90
22813;DHT22;11573;51.334;3.244;2022-07-17T12:20:08;24.70;99.90
22813;DHT22;11573;51.334;3.244;2022-07-17T12:22:47;24.80;99.90
22813;DHT22;11573;51.334;3.244;2022-07-17T12:25:25;24.90;99.90
22813;DHT22;11573;51.334;3.244;2022-07-17T12:27:52;25.00;99.90
22813;DHT22;11573;51.334;3.244;2022-07-17T12:30:20;25.10;99.90
22813;DHT22;11573;51.334;3.244;2022-07-17T12:32:47;25.20;99.90
22813;DHT22;11573;51.334;3.244;2022-07-17T12:35:15;25.30;99.90
22813;DHT22;11573;51.334;3.244;2022-07-17T12:37:43;25.60;99.90
22813;DHT22;11573;51.334;3.244;2022-07-17T12:40:10;25.80;99.90
22813;DHT22;11573;51.334;3.244;2022-07-17T12:42:42;26.10;99.90
22813;DHT22;11573;51.334;3.244;2022-07-17T12:45:10;26.10;99.90
22813;DHT22;11573;51.334;3.244;2022-07-17T12:47:37;25.70;99.90
22813;DHT22;11573;51.334;3.244;2022-07-17T12:50:05;25.80;99.90
22813;DHT22;11573;51.334;3.244;2022-07-17T12:52:32;26.00;99.90
22813;DHT22;11573;51.334;3.244;2022-07-17T12:54:59;26.20;99.90
22813;DHT22;11573;51.334;3.244;2022-07-17T12:57:26;26.00;99.90
22813;DHT22;11573;51.334;3.244;2022-07-17T12:59:53;26.10;99.90
22813;DHT22;11573;51.334;3.244;2022-07-17T13:02:20;26.40;99.90
22813;DHT22;11573;51.334;3.244;2022-07-17T13:04:48;26.60;99.90
22813;DHT22;11573;51.334;3.244;2022-07-17T13:07:15;26.40;99.90
22813;DHT22;11573;51.334;3.244;2022-07-17T13:09:41;26.30;99.90
22813;DHT22;11573;51.334;3.244;2022-07-17T13:12:08;26.20;99.90
22813;DHT22;11573;51.334;3.244;2022-07-17T13:14:35;26.00;99.90
22813;DHT22;11573;51.334;3.244;2022-07-17T13:17:02;25.90;99.90
22813;DHT22;11573;51.334;3.244;2022-07-17T13:19:29;25.70;99.90
22813;DHT22;11573;51.334;3.244;2022-07-17T13:21:56;25.90;99.90
22813;DHT22;11573;51.334;3.244;2022-07-17T13:24:23;25.80;99.90
22813;DHT22;11573;51.334;3.244;2022-07-17T13:26:50;26.00;99.90
22813;DHT22;11573;51.334;3.244;2022-07-17T13:29:17;26.00;99.90
22813;DHT22;11573;51.334;3.244;2022-07-17T13:31:44;26.00;99.90
22813;DHT22;11573;51.334;3.244;2022-07-17T13:34:12;25.80;99.90
22813;DHT22;11573;51.334;3.244;2022-07-17T13:36:39;25.80;99.90
22813;DHT22;11573;51.334;3.244;2022-07-17T13:39:06;25.60;99.90
22813;DHT22;11573;51.334;3.244;2022-07-17T13:41:32;25.50;99.90
22813;DHT22;11573;51.334;3.244;2022-07-17T13:43:59;25.50;99.90
22813;DHT22;11573;51.334;3.244;2022-07-17T13:46:34;25.40;99.90
22813;DHT22;11573;51.334;3.244;2022-07-17T13:49:02;25.30;99.90
22813;DHT22;11573;51.334;3.244;2022-07-17T13:51:29;25.30;99.90
22813;DHT22;11573;51.334;3.244;2022-07-17T13:53:57;25.50;99.90
22813;DHT22;11573;51.334;3.244;2022-07-17T13:56:25;25.50;99.90
22813;DHT22;11573;51.334;3.244;2022-07-17T13:58:52;25.50;99.90
22813;DHT22;11573;51.334;3.244;2022-07-17T14:01:19;25.60;99.90
22813;DHT22;11573;51.334;3.244;2022-07-17T14:03:49;25.70;99.90
22813;DHT22;11573;51.334;3.244;2022-07-17T14:06:16;25.70;99.90
22813;DHT22;11573;51.334;3.244;2022-07-17T14:08:44;25.50;99.90
22813;DHT22;11573;51.334;3.244;2022-07-17T14:11:11;25.20;99.90
22813;DHT22;11573;51.334;3.244;2022-07-17T14:13:39;25.20;99.90
22813;DHT22;11573;51.334;3.244;2022-07-17T14:16:14;25.30;99.90
22813;DHT22;11573;51.334;3.244;2022-07-17T14:18:41;25.40;99.90
22813;DHT22;11573;51.334;3.244;2022-07-17T14:21:31;25.50;99.90
22813;DHT22;11573;51.334;3.244;2022-07-17T14:23:58;25.80;99.90
22813;DHT22;11573;51.334;3.244;2022-07-17T14:26:27;26.10;99.90
22813;DHT22;11573;51.334;3.244;2022-07-17T14:28:55;26.00;99.90
22813;DHT22;11573;51.334;3.244;2022-07-17T14:31:22;25.80;99.90
22813;DHT22;11573;51.334;3.244;2022-07-17T14:33:50;25.60;99.90
22813;DHT22;11573;51.334;3.244;2022-07-17T14:36:17;25.60;99.90
22813;DHT22;11573;51.334;3.244;2022-07-17T14:38:44;25.80;99.90
22813;DHT22;11573;51.334;3.244;2022-07-17T14:41:11;25.80;99.90
22813;DHT22;11573;51.334;3.244;2022-07-17T14:43:38;25.80;99.90
22813;DHT22;11573;51.334;3.244;2022-07-17T14:46:09;26.10;99.90
22813;DHT22;11573;51.334;3.244;2022-07-17T14:48:36;26.30;99.90
22813;DHT22;11573;51.334;3.244;2022-07-17T14:51:03;26.30;99.90
22813;DHT22;11573;51.334;3.244;2022-07-17T14:53:30;26.60;99.90
22813;DHT22;11573;51.334;3.244;2022-07-17T14:55:57;26.70;99.90
22813;DHT22;11573;51.334;3.244;2022-07-17T14:58:25;26.80;99.90
22813;DHT22;11573;51.334;3.244;2022-07-17T15:00:52;26.50;99.90
22813;DHT22;11573;51.334;3.244;2022-07-17T15:03:18;26.30;99.90
22813;DHT22;11573;51.334;3.244;2022-07-17T15:05:46;26.30;99.90
22813;DHT22;11573;51.334;3.244;2022-07-17T15:08:13;26.40;99.90
22813;DHT22;11573;51.334;3.244;2022-07-17T15:10:40;26.50;99.90
22813;DHT22;11573;51.334;3.244;2022-07-17T15:13:07;26.70;99.90
22813;DHT22;11573;51.334;3.244;2022-07-17T15:15:34;26.90;99.90
22813;DHT22;11573;51.334;3.244;2022-07-17T15:18:01;26.50;99.90
22813;DHT22;11573;51.334;3.244;2022-07-17T15:20:28;26.10;99.90
22813;DHT22;11573;51.334;3.244;2022-07-17T15:22:55;26.10;99.90
22813;DHT22;11573;51.334;3.244;2022-07-17T15:25:22;26.20;99.90
22813;DHT22;11573;51.334;3.244;2022-07-17T15:27:49;26.50;99.90
22813;DHT22;11573;51.334;3.244;2022-07-17T15:30:17;26.60;99.90
22813;DHT22;11573;51.334;3.244;2022-07-17T15:32:44;26.40;99.90
22813;DHT22;11573;51.334;3.244;2022-07-17T15:35:11;26.30;99.90
22813;DHT22;11573;51.334;3.244;2022-07-17T15:37:39;26.30;99.90
22813;DHT22;11573;51.334;3.244;2022-07-17T15:40:06;26.50;99.90
22813;DHT22;11573;51.334;3.244;2022-07-17T15:42:33;26.60;99.90
22813;DHT22;11573;51.334;3.244;2022-07-17T15:45:00;26.70;99.90
22813;DHT22;11573;51.334;3.244;2022-07-17T15:47:28;26.90;99.90
22813;DHT22;11573;51.334;3.244;2022-07-17T15:49:56;27.20;99.90
22813;DHT22;11573;51.334;3.244;2022-07-17T15:52:23;27.10;99.90
22813;DHT22;11573;51.334;3.244;2022-07-17T15:54:50;27.00;99.90